Time;durP1;ratioP1;P1;durP2;ratioP2;P2;SDS_P1;SDS_P2;PMS_P1;PMS_P2;Temp;Humidity;BMP_temperature;BMP_pressure;BME280_temperature;BME280_humidity;BME280_pressure;Samples;Min_cycle;Max_cycle;Signal;HPM_P1;HPM_P2
2022/08/12 00:43:28;;;;;;;7.82;2.20;;;;;;;20.97;100.00;98919.66;5113912;27;20045;-93
2022/08/12 00:48:40;;;;;;;6.90;1.95;;;;;;;20.69;100.00;98922.78;5121871;27;20774;-95
2022/08/12 00:51:07;;;;;;;6.90;2.30;;;;;;;20.71;100.00;98915.63;5131252;27;20079;-95
2022/08/12 00:53:34;;;;;;;9.02;2.15;;;;;;;20.60;100.00;98918.75;5137863;27;20055;-96
2022/08/12 00:56:02;;;;;;;6.57;2.10;;;;;;;20.63;100.00;98917.75;5137764;27;20032;-95
2022/08/12 00:58:29;;;;;;;6.85;2.58;;;;;;;20.72;100.00;98911.16;5107466;27;20027;-96
2022/08/12 01:01:01;;;;;;;9.43;2.65;;;;;;;20.73;100.00;98912.88;5122875;27;20456;-95
2022/08/12 01:11:27;;;;;;;6.97;2.47;;;;;;;20.72;100.00;98911.16;5128415;27;20390;-95
2022/08/12 01:12:17;;;;;;;9.15;2.72;;;;;;;20.65;100.00;98905.25;5125501;27;20062;-95
2022/08/12 01:14:43;;;;;;;9.32;2.15;;;;;;;20.17;100.00;98906.66;5130490;27;20050;-95
2022/08/12 01:17:09;;;;;;;5.60;1.92;;;;;;;20.31;100.00;98909.53;5106155;27;20036;-95
2022/08/12 01:19:35;;;;;;;7.70;2.42;;;;;;;20.40;100.00;98905.56;5119882;27;20396;-96
2022/08/12 01:22:03;;;;;;;8.00;2.40;;;;;;;20.33;100.00;98904.16;5102211;27;20539;-95
2022/08/12 01:24:37;;;;;;;7.43;2.40;;;;;;;20.32;100.00;98908.59;5125481;27;20114;-96
2022/08/12 01:27:07;;;;;;;7.20;2.47;;;;;;;20.25;100.00;98905.38;5109139;27;20061;-95
2022/08/12 01:29:36;;;;;;;8.00;2.67;;;;;;;20.29;100.00;98899.00;5129834;27;20417;-94
2022/08/12 01:32:07;;;;;;;7.07;2.25;;;;;;;20.12;100.00;98905.09;5104113;27;20030;-95
2022/08/12 01:34:35;;;;;;;7.47;2.67;;;;;;;20.34;100.00;98909.38;5137964;27;20391;-93
2022/08/12 01:37:01;;;;;;;7.38;2.28;;;;;;;20.31;100.00;98908.66;5108025;27;20079;-96
2022/08/12 01:39:34;;;;;;;9.43;2.60;;;;;;;21.06;100.00;98905.06;5136515;27;20056;-94
2022/08/12 01:42:03;;;;;;;7.05;2.30;;;;;;;21.35;100.00;98900.09;5106657;27;20114;-95
2022/08/12 01:44:31;;;;;;;10.68;2.53;;;;;;;21.58;100.00;98898.09;5109122;27;20027;-94
2022/08/12 01:47:22;;;;;;;7.78;2.22;;;;;;;20.53;100.00;98900.53;5117627;27;20889;-93
2022/08/12 01:50:21;;;;;;;6.95;2.45;;;;;;;19.74;100.00;98907.63;5129248;27;20026;-94
2022/08/12 01:52:58;;;;;;;6.97;2.20;;;;;;;20.69;100.00;98901.56;5109625;27;20095;-93
2022/08/12 01:55:32;;;;;;;6.68;2.20;;;;;;;20.85;100.00;98896.41;5110274;27;20108;-95
2022/08/12 01:58:03;;;;;;;7.15;2.30;;;;;;;20.91;100.00;98895.22;5111698;27;20103;-94
2022/08/12 02:00:43;;;;;;;8.32;2.45;;;;;;;20.98;100.00;98902.78;5117114;27;20078;-94
2022/08/12 02:12:37;;;;;;;6.40;2.30;;;;;;;19.63;100.00;98887.88;5120719;27;20042;-94
2022/08/12 02:15:14;;;;;;;9.35;2.55;;;;;;;19.56;100.00;98887.28;5130654;27;20015;-93
2022/08/12 02:18:24;;;;;;;6.68;2.55;;;;;;;19.56;100.00;98889.91;5105006;27;20137;-94
2022/08/12 02:21:03;;;;;;;7.72;2.20;;;;;;;19.37;100.00;98877.50;5074149;28;20082;-94
2022/08/12 02:23:30;;;;;;;8.00;2.83;;;;;;;19.51;100.00;98881.31;5063773;28;20626;-94
2022/08/12 02:26:04;;;;;;;8.35;2.55;;;;;;;19.53;100.00;98888.25;5062162;28;20539;-95
2022/08/12 02:28:29;;;;;;;8.15;2.20;;;;;;;19.54;100.00;98886.47;5051032;28;20024;-94
2022/08/12 02:31:00;;;;;;;8.18;2.50;;;;;;;19.39;100.00;98891.50;5039555;28;20593;-95
2022/08/12 02:33:26;;;;;;;8.13;2.63;;;;;;;19.30;100.00;98886.59;5045187;28;20041;-94
2022/08/12 02:35:53;;;;;;;8.73;2.65;;;;;;;19.01;100.00;98886.06;5050740;28;20048;-93
2022/08/12 02:38:20;;;;;;;7.72;2.75;;;;;;;19.05;100.00;98884.13;5040558;28;20040;-95
2022/08/12 02:40:50;;;;;;;9.50;3.30;;;;;;;19.25;100.00;98886.81;5065768;28;20719;-94
2022/08/12 02:43:39;;;;;;;9.38;3.20;;;;;;;19.24;100.00;98890.38;5052416;28;20241;-96
2022/08/12 02:46:10;;;;;;;8.73;2.92;;;;;;;19.28;100.00;98888.47;5042465;28;20048;-92
2022/08/12 02:48:43;;;;;;;7.57;2.92;;;;;;;19.13;100.00;98889.97;5062826;28;20161;-93
2022/08/12 02:51:11;;;;;;;10.20;3.45;;;;;;;19.06;100.00;98878.78;5071000;28;20039;-93
2022/08/12 02:53:38;;;;;;;8.85;3.30;;;;;;;19.12;100.00;98884.75;5105868;27;20035;-93
2022/08/12 02:56:04;;;;;;;9.05;3.80;;;;;;;19.24;100.00;98876.31;5112350;27;20121;-96
2022/08/12 02:58:31;;;;;;;10.88;4.18;;;;;;;19.05;100.00;98877.09;5119116;27;20042;-94
2022/08/12 03:01:04;;;;;;;12.05;4.05;;;;;;;19.03;100.00;98878.06;5102581;27;20039;-93
2022/08/12 03:03:32;;;;;;;9.45;4.50;;;;;;;18.86;100.00;98876.06;5110604;27;20719;-93
2022/08/12 03:06:20;;;;;;;11.25;3.92;;;;;;;18.74;100.00;98878.28;5102135;27;20325;-93
2022/08/12 03:08:48;;;;;;;10.38;4.47;;;;;;;18.86;100.00;98876.06;5128121;27;20031;-95
2022/08/12 03:11:38;;;;;;;10.52;4.60;;;;;;;18.99;100.00;98869.41;5128840;27;20027;-94
2022/08/12 03:14:04;;;;;;;9.93;4.20;;;;;;;19.00;100.00;98868.47;5133262;27;20032;-95
2022/08/12 03:16:31;;;;;;;9.43;4.68;;;;;;;18.81;100.00;98868.34;5104447;27;20118;-94
2022/08/12 03:18:57;;;;;;;9.90;4.60;;;;;;;18.85;100.00;98858.53;5114895;27;20122;-96
2022/08/12 03:21:23;;;;;;;8.80;3.65;;;;;;;18.67;100.00;98860.13;5100357;27;20084;-93
2022/08/12 03:23:51;;;;;;;13.25;4.32;;;;;;;18.64;100.00;98854.97;5113776;27;21033;-96
2022/08/12 03:26:23;;;;;;;10.07;3.92;;;;;;;18.72;100.00;98852.88;5111461;27;20035;-93
2022/08/12 03:28:49;;;;;;;9.52;3.95;;;;;;;18.72;100.00;98853.75;5103782;27;20553;-96
2022/08/12 03:31:23;;;;;;;10.52;3.70;;;;;;;18.72;100.00;98848.44;5109199;27;20122;-93
2022/08/12 03:33:50;;;;;;;12.05;3.45;;;;;;;18.64;100.00;98860.25;5109250;27;20037;-96
2022/08/12 03:36:19;;;;;;;8.32;3.60;;;;;;;18.81;100.00;98849.00;5123667;27;20035;-94
2022/08/12 03:39:14;;;;;;;8.80;4.10;;;;;;;18.62;100.00;98849.72;5109350;27;20038;-94
2022/08/12 03:41:43;;;;;;;8.95;3.72;;;;;;;18.70;100.00;98849.44;5122339;27;20035;-94
2022/08/12 04:01:07;;;;;;;11.25;4.40;;;;;;;18.63;100.00;98847.97;5128806;27;20104;-92
2022/08/12 04:03:51;;;;;;;19.63;4.45;;;;;;;18.49;100.00;98851.16;5114204;27;20045;-96
2022/08/12 04:06:28;;;;;;;11.02;4.45;;;;;;;18.65;100.00;98847.00;5118418;27;20042;-93
2022/08/12 04:08:57;;;;;;;9.60;4.43;;;;;;;18.61;100.00;98850.69;5122120;27;20025;-95
2022/08/12 04:14:11;;;;;;;9.77;4.90;;;;;;;18.35;100.00;98849.91;5121155;27;20099;-96
2022/08/12 04:16:39;;;;;;;10.15;4.70;;;;;;;18.36;100.00;98850.81;5134974;27;20032;-94
2022/08/12 04:19:06;;;;;;;11.05;4.57;;;;;;;18.05;100.00;98855.47;5110826;27;20034;-94
2022/08/12 04:21:32;;;;;;;10.20;4.63;;;;;;;18.30;100.00;98844.00;5105799;27;20019;-96
2022/08/12 04:23:59;;;;;;;13.60;4.53;;;;;;;18.39;100.00;98851.53;5126834;27;20554;-94
2022/08/12 04:26:26;;;;;;;13.52;5.18;;;;;;;18.27;100.00;98841.44;5100556;27;20031;-95
2022/08/12 04:28:55;;;;;;;13.68;5.20;;;;;;;18.24;100.00;98847.69;5106411;27;20038;-96
2022/08/12 04:31:54;;;;;;;10.38;4.20;;;;;;;18.37;100.00;98853.38;5109359;27;20122;-94
2022/08/12 04:34:23;;;;;;;15.98;4.57;;;;;;;18.50;100.00;98843.19;5081957;27;20063;-94
2022/08/12 04:36:48;;;;;;;12.45;4.50;;;;;;;18.45;100.00;98853.06;5103156;27;20038;-95
2022/08/12 04:39:16;;;;;;;10.20;4.05;;;;;;;17.96;100.00;98842.63;5116437;27;20348;-94
2022/08/12 04:41:43;;;;;;;13.20;4.22;;;;;;;18.01;100.00;98847.72;5110461;27;20031;-93
2022/08/12 04:44:09;;;;;;;11.35;4.30;;;;;;;18.15;100.00;98844.56;5103910;27;20020;-95
2022/08/12 04:46:35;;;;;;;8.20;4.30;;;;;;;18.46;100.00;98852.16;5108523;27;20015;-95
2022/08/12 04:49:02;;;;;;;13.00;4.93;;;;;;;18.77;100.00;98851.78;5121222;27;20035;-95
2022/08/12 04:51:28;;;;;;;10.55;4.15;;;;;;;18.65;100.00;98854.03;5105361;27;20023;-94
2022/08/12 04:53:53;;;;;;;12.18;4.50;;;;;;;18.77;100.00;98843.84;5099964;27;20070;-94
2022/08/12 04:56:19;;;;;;;10.68;4.18;;;;;;;18.72;100.00;98843.16;5127501;27;20061;-94
2022/08/12 04:58:45;;;;;;;8.73;4.07;;;;;;;19.37;100.00;98840.47;5101471;27;20688;-96
2022/08/12 05:01:11;;;;;;;10.90;4.10;;;;;;;18.74;100.00;98848.38;5098548;27;20030;-94
2022/08/12 05:03:39;;;;;;;9.88;3.85;;;;;;;18.69;100.00;98853.00;5101007;27;20467;-96
2022/08/12 05:06:06;;;;;;;11.40;4.35;;;;;;;18.63;100.00;98856.75;5105920;27;20408;-96
2022/08/12 05:08:32;;;;;;;9.40;4.18;;;;;;;18.67;100.00;98858.34;5106096;27;20031;-93
2022/08/12 05:10:58;;;;;;;8.35;3.83;;;;;;;18.64;100.00;98860.25;5109014;27;20019;-96
2022/08/12 05:13:36;;;;;;;10.23;3.90;;;;;;;18.61;100.00;98855.97;5135058;27;20038;-96
2022/08/12 05:16:03;;;;;;;9.05;3.80;;;;;;;18.61;100.00;98861.25;5127924;27;20091;-95
2022/08/12 05:18:28;;;;;;;9.73;3.88;;;;;;;18.63;100.00;98859.38;5135781;27;20049;-96
2022/08/12 05:20:54;;;;;;;11.35;4.20;;;;;;;18.70;100.00;98858.22;5102628;27;20031;-96
2022/08/12 05:23:21;;;;;;;10.65;4.18;;;;;;;18.74;100.00;98859.81;5112819;27;20461;-96
2022/08/12 05:25:55;;;;;;;9.60;3.97;;;;;;;18.67;100.00;98870.69;5102444;27;20050;-96
2022/08/12 05:28:23;;;;;;;10.52;3.72;;;;;;;18.50;100.00;98874.03;5101764;27;20034;-94
2022/08/12 05:30:49;;;;;;;9.73;3.83;;;;;;;18.34;100.00;98869.31;5130925;27;20034;-93
2022/08/12 05:33:14;;;;;;;9.60;3.67;;;;;;;18.52;100.00;98877.44;5100227;27;20028;-96
2022/08/12 05:35:43;;;;;;;8.88;3.35;;;;;;;18.71;100.00;98883.72;5100286;27;20080;-94
2022/08/12 05:41:00;;;;;;;8.52;3.63;;;;;;;18.82;100.00;98885.06;5118922;27;20050;-94
2022/08/12 05:43:27;;;;;;;9.02;3.58;;;;;;;19.82;100.00;98874.69;5132773;27;20034;-93
2022/08/12 05:45:53;;;;;;;12.10;4.07;;;;;;;19.00;100.00;98883.47;5110837;27;20050;-96
2022/08/12 05:48:19;;;;;;;8.73;3.63;;;;;;;19.07;100.00;98875.22;5108871;27;20443;-89
2022/08/12 05:50:46;;;;;;;11.60;3.67;;;;;;;19.20;100.00;98894.06;5121610;27;20023;-92
2022/08/12 05:56:28;;;;;;;11.65;3.90;;;;;;;19.51;100.00;98883.97;5106359;27;20134;-93
2022/08/12 05:58:55;;;;;;;10.98;4.38;;;;;;;19.48;100.00;98890.25;5093828;27;20067;-94
2022/08/12 06:01:23;;;;;;;13.45;4.72;;;;;;;19.45;100.00;98890.38;5091658;27;20048;-95
2022/08/12 06:03:51;;;;;;;12.30;4.63;;;;;;;19.53;100.00;98888.25;5093619;27;20111;-93
2022/08/12 06:06:17;;;;;;;14.00;4.88;;;;;;;19.43;100.00;98887.81;5096586;28;20491;-96
2022/08/12 06:08:45;;;;;;;11.13;4.50;;;;;;;19.42;100.00;98890.53;5097383;27;20038;-92
2022/08/12 06:11:11;;;;;;;11.00;4.15;;;;;;;19.43;100.00;98892.25;5101191;28;20119;-94
2022/08/12 06:13:37;;;;;;;10.68;4.85;;;;;;;19.51;100.00;98889.25;5097909;27;20550;-95
2022/08/12 06:16:05;;;;;;;9.60;4.60;;;;;;;19.53;100.00;98892.72;5104398;27;20031;-95
2022/08/12 06:18:30;;;;;;;9.43;4.50;;;;;;;19.40;100.00;98897.66;5099783;27;20119;-95
2022/08/12 06:20:58;;;;;;;12.75;4.68;;;;;;;19.60;100.00;98891.50;5094335;27;20104;-94
2022/08/12 06:23:27;;;;;;;12.88;4.70;;;;;;;19.80;100.00;98885.34;5114312;27;20061;-94
2022/08/12 06:25:58;;;;;;;11.27;4.68;;;;;;;19.93;100.00;98888.28;5097823;27;20023;-92
2022/08/12 06:28:24;;;;;;;10.70;4.43;;;;;;;20.08;100.00;98889.38;5102036;27;20558;-92
2022/08/12 06:30:51;;;;;;;10.75;4.43;;;;;;;20.17;100.00;98894.28;5095060;27;20509;-95
2022/08/12 06:33:20;;;;;;;10.73;4.68;;;;;;;20.27;100.00;98895.56;5101003;27;20071;-95
2022/08/12 06:35:45;;;;;;;9.98;4.55;;;;;;;20.36;100.00;98890.75;5098535;27;20123;-95
2022/08/12 06:38:19;;;;;;;10.80;4.72;;;;;;;20.60;100.00;98888.75;5094155;27;20111;-94
2022/08/12 06:43:30;;;;;;;13.07;4.50;;;;;;;20.64;100.00;98888.50;5096332;28;20409;-91
2022/08/12 06:45:59;;;;;;;11.40;4.35;;;;;;;20.59;100.00;98892.31;5105489;28;20116;-95
2022/08/12 06:48:28;;;;;;;11.95;4.38;;;;;;;20.65;100.00;98894.66;5097428;28;20051;-90
2022/08/12 06:50:55;;;;;;;10.75;4.20;;;;;;;21.28;100.00;98896.03;5087964;28;20495;-88
2022/08/12 06:53:22;;;;;;;11.02;4.18;;;;;;;21.00;100.00;98900.06;5096487;28;20033;-86
2022/08/12 06:55:49;;;;;;;10.52;4.45;;;;;;;21.35;100.00;98899.22;5092245;28;20051;-89
2022/08/12 06:58:15;;;;;;;11.02;4.10;;;;;;;20.89;100.00;98899.72;5090645;28;20020;-90
2022/08/12 07:00:45;;;;;;;11.35;4.05;;;;;;;21.16;100.00;98904.63;5092754;28;20088;-87
2022/08/12 07:03:16;;;;;;;10.13;4.07;;;;;;;21.53;100.00;98910.72;5088766;28;20061;-87
2022/08/12 07:05:42;;;;;;;10.52;4.22;;;;;;;21.73;100.00;98910.53;5088207;28;20024;-88
2022/08/12 07:08:11;;;;;;;11.32;4.05;;;;;;;21.37;100.00;98905.31;5093087;27;20490;-88
2022/08/12 07:10:56;;;;;;;10.68;3.92;;;;;;;21.30;100.00;98899.47;5093650;28;20033;-89
2022/08/12 07:13:23;;;;;;;11.10;4.03;;;;;;;21.87;100.00;98899.19;5090144;28;20031;-88
2022/08/12 07:15:54;;;;;;;8.48;3.80;;;;;;;21.96;100.00;98903.16;5094577;27;20038;-88
2022/08/12 07:18:20;;;;;;;12.55;4.35;;;;;;;21.71;100.00;98904.47;5100093;27;20038;-87
2022/08/12 07:20:47;;;;;;;10.57;4.20;;;;;;;21.86;100.00;98894.81;5103220;27;20027;-87
2022/08/12 07:23:14;;;;;;;13.05;4.25;;;;;;;21.99;100.00;98900.34;5100199;27;20028;-87
2022/08/12 07:25:39;;;;;;;9.25;4.15;;;;;;;22.12;100.00;98896.06;5095033;28;20024;-90
2022/08/12 07:28:10;;;;;;;11.95;4.10;;;;;;;21.99;100.00;98897.69;5097913;27;20079;-88
2022/08/12 07:30:38;;;;;;;11.85;3.97;;;;;;;22.49;100.00;98898.53;5092373;27;20066;-88
2022/08/12 07:33:07;;;;;;;9.45;4.05;;;;;;;22.03;100.00;98895.72;5099497;27;20596;-89
2022/08/12 07:35:41;;;;;;;10.55;4.15;;;;;;;22.35;100.00;98896.63;5093658;27;20116;-87
2022/08/12 07:38:23;;;;;;;11.45;4.18;;;;;;;22.39;100.00;98886.72;5096510;27;20084;-88
2022/08/12 07:41:10;;;;;;;9.32;3.92;;;;;;;22.01;100.00;98890.50;5103332;27;20104;-88
2022/08/12 07:43:41;;;;;;;11.90;4.13;;;;;;;22.38;100.00;98893.84;5101420;27;20693;-87
2022/08/12 07:46:13;;;;;;;8.30;3.55;;;;;;;22.68;100.00;98882.41;5097914;27;20600;-88
2022/08/12 07:48:48;;;;;;;11.63;4.70;;;;;;;22.60;100.00;98888.19;5091834;27;20023;-88
2022/08/12 07:51:15;;;;;;;10.20;3.90;;;;;;;22.62;100.00;98893.41;5092361;27;20062;-88
2022/08/12 07:53:40;;;;;;;13.75;4.00;;;;;;;22.17;100.00;98894.03;5101271;27;20036;-87
2022/08/12 07:56:10;;;;;;;9.77;3.65;;;;;;;22.08;100.00;98894.53;5098890;27;20412;-88
2022/08/12 07:58:38;;;;;;;14.25;4.22;;;;;;;22.03;100.00;98891.25;5105760;27;20038;-88
2022/08/12 08:01:10;;;;;;;12.45;3.80;;;;;;;22.47;100.00;98885.31;5099367;27;20027;-87
2022/08/12 08:04:54;;;;;;;9.20;3.67;;;;;;;22.12;100.00;98890.75;5119426;27;20036;-88
2022/08/12 08:06:30;;;;;;;10.95;3.55;;;;;;;22.55;100.00;98887.56;5095019;27;20100;-88
2022/08/12 08:08:57;;;;;;;10.88;3.70;;;;;;;22.67;100.00;98891.31;5100384;27;20691;-87
2022/08/12 08:14:10;;;;;;;10.32;3.53;;;;;;;22.60;100.00;98888.19;5099427;27;20046;-88
2022/08/12 08:16:38;;;;;;;12.57;4.05;;;;;;;22.33;100.00;98887.88;5092612;27;20069;-86
2022/08/12 08:19:03;;;;;;;8.25;3.50;;;;;;;22.18;100.00;98889.56;5098636;27;20042;-88
2022/08/12 08:21:34;;;;;;;11.68;4.40;;;;;;;22.45;100.00;98884.56;5100067;27;20036;-87
2022/08/12 08:24:15;;;;;;;14.73;4.22;;;;;;;22.54;100.00;98893.81;5097089;27;20471;-88
2022/08/12 08:26:51;;;;;;;11.90;4.72;;;;;;;22.79;100.00;98887.13;5096803;27;20487;-88
2022/08/12 08:29:18;;;;;;;12.13;4.57;;;;;;;22.77;100.00;98887.22;5094097;27;20035;-87
2022/08/12 08:31:45;;;;;;;11.40;4.68;;;;;;;22.65;100.00;98885.25;5093943;27;20048;-88
2022/08/12 08:34:12;;;;;;;12.63;4.53;;;;;;;22.64;100.00;98886.19;5094048;27;20479;-88
2022/08/12 08:36:38;;;;;;;10.45;4.57;;;;;;;22.88;100.00;98883.06;5096062;27;20521;-88
2022/08/12 08:39:08;;;;;;;10.68;4.63;;;;;;;23.28;100.00;98886.94;5094889;27;20044;-88
2022/08/12 08:44:19;;;;;;;11.45;5.30;;;;;;;23.16;100.00;98885.03;5083953;27;20599;-87
2022/08/12 08:46:46;;;;;;;10.88;4.70;;;;;;;23.65;100.00;98882.06;5089974;27;20039;-88
2022/08/12 08:49:14;;;;;;;10.68;4.45;;;;;;;23.67;100.00;98889.94;5093402;27;20035;-88
2022/08/12 08:51:40;;;;;;;12.43;5.35;;;;;;;23.48;100.00;98888.41;5090437;27;20092;-87
2022/08/12 08:54:07;;;;;;;12.98;4.93;;;;;;;23.82;100.00;98881.03;5101001;27;20035;-92
2022/08/12 08:56:41;;;;;;;13.80;5.75;;;;;;;23.60;100.00;98881.47;5098067;27;20051;-90
2022/08/12 08:59:07;;;;;;;11.73;5.05;;;;;;;23.92;100.00;98885.81;5087766;27;20134;-90
2022/08/12 09:01:33;;;;;;;14.80;4.88;;;;;;;23.69;100.00;98886.25;5097632;27;20118;-92
2022/08/12 09:03:58;;;;;;;12.95;4.53;;;;;;;24.15;100.00;98885.25;5102542;27;20438;-92
2022/08/12 09:06:23;;;;;;;9.85;4.10;;;;;;;24.18;100.00;98877.03;5099800;27;20388;-92
2022/08/12 09:08:49;;;;;;;11.27;4.70;;;;;;;24.06;100.00;98884.97;5094351;27;20020;-91
2022/08/12 09:13:59;;;;;;;11.02;4.78;;;;;;;24.59;100.00;98877.16;5099645;27;20153;-91
2022/08/12 09:16:25;;;;;;;9.55;4.10;;;;;;;24.96;100.00;98882.78;5095329;27;20039;-91
2022/08/12 09:18:51;;;;;;;9.45;4.75;;;;;;;24.56;100.00;98874.69;5097677;27;20039;-91
2022/08/12 09:21:16;;;;;;;12.05;4.75;;;;;;;24.81;100.00;98879.31;5096166;27;20036;-92
2022/08/12 09:23:42;;;;;;;14.90;4.95;;;;;;;24.49;100.00;98875.06;5103051;27;20183;-91
2022/08/12 09:26:08;;;;;;;13.25;4.97;;;;;;;24.91;100.00;98877.72;5094007;27;20062;-91
2022/08/12 09:28:35;;;;;;;13.02;4.38;;;;;;;25.28;100.00;98867.25;5095091;27;20144;-93
2022/08/12 09:31:00;;;;;;;12.35;4.30;;;;;;;25.59;100.00;98869.66;5097510;27;20031;-90
2022/08/12 09:33:32;;;;;;;9.93;3.65;;;;;;;25.38;100.00;98864.84;5099969;27;20035;-89
2022/08/12 09:35:59;;;;;;;14.27;4.72;;;;;;;25.48;100.00;98860.56;5102027;27;20023;-90
2022/08/12 09:38:27;;;;;;;10.02;3.67;;;;;;;25.45;100.00;98860.78;5104631;27;20112;-90
2022/08/12 09:40:53;;;;;;;11.75;3.90;;;;;;;25.92;100.00;98865.59;5104671;28;20020;-90
2022/08/12 09:46:03;;;;;;;12.60;3.67;;;;;;;25.52;100.00;98867.41;5116147;27;20070;-91
2022/08/12 09:48:31;;;;;;;9.88;3.58;;;;;;;25.65;100.00;98864.75;5112426;27;20043;-91
2022/08/12 09:50:57;;;;;;;10.82;4.20;;;;;;;26.23;100.00;98858.94;5101818;27;20456;-91
2022/08/12 09:53:24;;;;;;;10.18;3.63;;;;;;;26.32;100.00;98858.28;5096025;27;20028;-90
2022/08/12 09:55:54;;;;;;;9.57;3.20;;;;;;;26.09;100.00;98862.59;5096716;27;20078;-91
2022/08/12 09:58:27;;;;;;;8.07;3.28;;;;;;;26.28;100.00;98859.47;5099578;27;20019;-92
2022/08/12 10:01:01;;;;;;;9.73;3.30;;;;;;;26.55;100.00;98864.59;5100892;27;20031;-88
2022/08/12 10:03:35;;;;;;;10.07;3.78;;;;;;;26.37;100.00;98872.19;5098797;27;20037;-90
2022/08/12 10:06:04;;;;;;;11.68;3.95;;;;;;;26.19;100.00;98860.13;5100766;27;20499;-90
2022/08/12 10:08:30;;;;;;;10.73;4.18;;;;;;;26.76;100.00;98853.31;5093230;27;20627;-91
2022/08/12 10:13:42;;;;;;;8.95;3.13;;;;;;;26.58;100.00;98853.69;5105826;27;20046;-95
2022/08/12 10:16:11;;;;;;;10.95;3.63;;;;;;;26.92;97.79;98861.06;5103102;27;20028;-93
2022/08/12 10:18:41;;;;;;;10.20;3.92;;;;;;;27.21;99.78;98855.28;5104792;27;20039;-92
2022/08/12 10:21:15;;;;;;;10.50;3.72;;;;;;;27.47;95.33;98853.31;5133306;27;20031;-92
2022/08/12 10:23:43;;;;;;;9.85;3.22;;;;;;;29.70;89.32;98854.88;5101958;27;20067;-93
2022/08/12 10:31:40;;;;;;;10.95;3.30;;;;;;;31.14;66.98;98860.94;5103595;27;20035;-92
2022/08/12 10:34:08;;;;;;;9.73;3.65;;;;;;;30.05;75.70;98850.97;5098077;27;20027;-93
2022/08/12 10:36:37;;;;;;;8.70;3.50;;;;;;;30.54;68.33;98851.09;5104348;27;20043;-93
2022/08/12 10:39:03;;;;;;;9.23;2.90;;;;;;;30.07;72.30;98845.44;5093223;28;20130;-94
2022/08/12 10:44:15;;;;;;;7.50;2.67;;;;;;;29.56;72.33;98844.47;5098318;27;20033;-94
2022/08/12 10:46:41;;;;;;;7.65;2.88;;;;;;;30.01;77.48;98835.22;5103093;27;20434;-93
2022/08/12 10:49:10;;;;;;;10.35;2.90;;;;;;;29.50;79.28;98842.31;5101024;28;20391;-93
2022/08/12 10:51:36;;;;;;;15.18;3.13;;;;;;;28.86;74.03;98834.19;5102202;28;20031;-95
2022/08/12 10:54:01;;;;;;;9.45;3.35;;;;;;;30.10;77.09;98829.84;5097576;28;20034;-90
2022/08/12 10:56:27;;;;;;;9.65;3.13;;;;;;;29.61;74.09;98829.63;5100141;28;20051;-91
2022/08/12 10:58:54;;;;;;;10.35;3.20;;;;;;;29.95;73.71;98829.41;5092102;28;20038;-92
2022/08/12 11:01:20;;;;;;;10.95;3.10;;;;;;;30.14;73.33;98828.59;5088711;28;20038;-91
2022/08/12 11:03:45;;;;;;;14.02;3.17;;;;;;;30.21;78.05;98826.22;5087326;28;20040;-91
2022/08/12 11:06:11;;;;;;;12.38;2.80;;;;;;;29.90;73.60;98820.06;5093935;28;20039;-91
2022/08/12 11:08:38;;;;;;;7.65;2.92;;;;;;;30.04;71.24;98822.34;5095415;28;20089;-92
2022/08/12 11:11:07;;;;;;;7.82;3.30;;;;;;;30.00;73.65;98820.09;5102999;28;20115;-91
2022/08/12 11:13:36;;;;;;;8.38;3.33;;;;;;;29.83;73.80;98818.84;5104835;28;20020;-92
2022/08/12 11:16:03;;;;;;;8.93;3.15;;;;;;;30.32;72.81;98817.19;5099675;28;20395;-92
2022/08/12 11:18:29;;;;;;;7.50;2.88;;;;;;;30.84;65.01;98805.34;5089140;28;20115;-91
2022/08/12 11:20:55;;;;;;;10.35;3.15;;;;;;;29.90;70.29;98811.97;5092247;28;20138;-92
2022/08/12 11:23:21;;;;;;;8.90;3.30;;;;;;;29.62;73.33;98811.69;5108394;28;20496;-91
2022/08/12 11:25:48;;;;;;;9.07;2.42;;;;;;;30.06;66.20;98811.47;5105109;27;20152;-91
2022/08/12 11:28:14;;;;;;;8.02;2.85;;;;;;;30.08;63.53;98813.03;5104544;28;20026;-92
2022/08/12 11:30:40;;;;;;;10.40;2.40;;;;;;;30.40;61.31;98811.13;5104165;28;20063;-94
2022/08/12 11:33:07;;;;;;;8.80;2.15;;;;;;;30.25;66.88;98800.75;5102483;28;20109;-94
2022/08/12 11:35:35;;;;;;;7.80;2.10;;;;;;;29.59;56.43;98810.13;5111634;28;20041;-94
2022/08/12 11:38:04;;;;;;;7.13;2.13;;;;;;;29.34;59.35;98794.41;5109798;28;20509;-94
2022/08/12 11:40:30;;;;;;;7.63;2.30;;;;;;;29.60;67.72;98787.66;5101409;28;20518;-93
2022/08/12 11:42:59;;;;;;;11.07;2.38;;;;;;;29.59;62.32;98794.00;5102677;27;20040;-94
2022/08/12 11:45:27;;;;;;;9.32;2.50;;;;;;;29.59;58.74;98790.44;5102389;28;20054;-95
2022/08/12 11:47:54;;;;;;;10.02;2.10;;;;;;;30.20;61.26;98796.78;5099471;28;20028;-92
2022/08/12 11:50:20;;;;;;;7.80;2.03;;;;;;;30.44;58.36;98794.59;5097442;28;20069;-92
2022/08/12 11:52:50;;;;;;;8.48;2.35;;;;;;;30.64;61.09;98794.59;5097446;28;20043;-91
2022/08/12 11:55:16;;;;;;;7.40;2.40;;;;;;;30.81;58.16;98785.81;5100370;28;20054;-91
2022/08/12 11:57:54;;;;;;;7.35;2.22;;;;;;;30.33;60.13;98792.00;5102258;28;20063;-93
2022/08/12 12:00:21;;;;;;;6.75;2.10;;;;;;;29.80;56.50;98782.34;5110788;28;20039;-94
2022/08/12 12:02:47;;;;;;;7.35;1.70;;;;;;;30.26;58.63;98782.78;5098331;27;20254;-93
2022/08/12 12:05:17;;;;;;;6.40;1.80;;;;;;;30.23;61.24;98778.53;5095379;27;20028;-92
2022/08/12 12:07:44;;;;;;;7.05;1.90;;;;;;;30.18;53.77;98779.94;5095249;27;20129;-94
2022/08/12 12:10:20;;;;;;;7.50;1.95;;;;;;;29.94;54.17;98770.41;5094324;27;20499;-93
2022/08/12 12:12:46;;;;;;;7.15;1.92;;;;;;;29.86;53.25;98780.97;5102342;27;20032;-92
2022/08/12 12:15:13;;;;;;;7.70;2.30;;;;;;;29.85;59.83;98768.53;5109475;27;20023;-93
2022/08/12 12:17:40;;;;;;;6.90;2.08;;;;;;;30.05;57.17;98764.91;5103415;27;20518;-93
2022/08/12 12:20:08;;;;;;;7.15;2.00;;;;;;;30.80;53.53;98765.25;5111710;27;20103;-92
2022/08/12 12:22:35;;;;;;;7.43;2.00;;;;;;;30.98;53.11;98760.00;5096587;27;20035;-95
2022/08/12 12:25:01;;;;;;;6.22;1.73;;;;;;;30.43;53.61;98765.09;5102269;28;20035;-94
2022/08/12 12:27:26;;;;;;;6.18;1.80;;;;;;;30.43;54.77;98757.88;5100990;27;20495;-94
2022/08/12 12:29:55;;;;;;;6.13;2.00;;;;;;;30.29;53.72;98764.50;5101674;27;20036;-92
2022/08/12 12:32:20;;;;;;;6.22;2.22;;;;;;;30.26;54.96;98754.03;5098805;27;20070;-94
2022/08/12 12:34:46;;;;;;;8.52;2.10;;;;;;;30.68;57.94;98752.09;5101657;27;20107;-93
2022/08/12 12:37:12;;;;;;;7.18;2.33;;;;;;;31.11;56.75;98748.94;5099027;27;20112;-94
2022/08/12 12:39:39;;;;;;;6.90;2.15;;;;;;;31.29;53.63;98749.03;5102652;27;20035;-93
2022/08/12 12:42:05;;;;;;;8.48;2.55;;;;;;;31.43;50.83;98741.47;5101880;27;20023;-92
2022/08/12 12:44:30;;;;;;;9.00;2.50;;;;;;;30.93;52.15;98745.28;5093188;27;20084;-91
2022/08/12 12:46:56;;;;;;;7.97;2.42;;;;;;;30.72;52.69;98748.97;5099657;27;20028;-92
2022/08/12 12:49:21;;;;;;;7.30;2.78;;;;;;;30.99;52.16;98741.97;5103003;27;20829;-93
2022/08/12 12:52:13;;;;;;;10.00;2.95;;;;;;;31.18;53.65;98735.75;5105122;27;20474;-92
2022/08/12 12:54:51;;;;;;;8.75;2.83;;;;;;;31.45;52.52;98728.69;5093062;27;20052;-95
2022/08/12 12:57:16;;;;;;;7.00;2.47;;;;;;;31.74;52.01;98728.56;5091162;27;20035;-92
2022/08/12 13:00:13;;;;;;;9.55;2.55;;;;;;;32.04;51.40;98733.78;5094141;27;20036;-96
2022/08/12 13:02:27;;;;;;;8.85;3.00;;;;;;;31.75;50.58;98735.69;5103539;27;20142;-93
2022/08/12 13:04:53;;;;;;;11.38;3.42;;;;;;;32.00;52.90;98734.09;5105467;28;20032;-92
2022/08/12 13:07:19;;;;;;;9.25;2.70;;;;;;;32.10;49.80;98725.09;5096113;27;20391;-93
2022/08/12 13:09:45;;;;;;;10.40;2.67;;;;;;;31.60;47.71;98737.19;5090996;27;20051;-93
2022/08/12 13:12:11;;;;;;;8.23;2.78;;;;;;;31.08;51.08;98732.19;5100711;27;20035;-95
2022/08/12 13:14:37;;;;;;;7.07;2.35;;;;;;;30.92;49.19;98732.78;5106008;27;20020;-95
2022/08/12 13:17:03;;;;;;;8.32;2.30;;;;;;;31.30;48.38;98726.47;5103825;27;20027;-93
2022/08/12 13:19:35;;;;;;;6.85;2.08;;;;;;;31.98;47.89;98719.94;5097545;27;20032;-93
2022/08/12 13:22:19;;;;;;;;;;;;;;;31.43;42.60;98720.75;5097423;28;20091;-92
2022/08/12 13:24:45;;;;;;;6.63;2.20;;;;;;;31.31;43.14;98720.06;5093098;27;19916;-94